sensor_id;sensor_type;location;lat;lon;timestamp;pressure;altitude;pressure_sealevel;temperature;humidity
9423;BME280;65863;49.506;10.400;2023-04-01T00:01:04;96463.94;;;8.05;82.59
9423;BME280;65863;49.506;10.400;2023-04-01T00:03:49;96505.78;;;8.31;82.38
9423;BME280;65863;49.506;10.400;2023-04-01T00:06:33;96495.75;;;8.27;82.14
9423;BME280;65863;49.506;10.400;2023-04-01T00:09:17;96494.84;;;8.25;82.17
9423;BME280;65863;49.506;10.400;2023-04-01T00:12:01;96488.38;;;8.22;82.32
9423;BME280;65863;49.506;10.400;2023-04-01T00:14:45;96518.41;;;8.39;82.35
9423;BME280;65863;49.506;10.400;2023-04-01T00:17:29;96532.31;;;8.47;82.29
9423;BME280;65863;49.506;10.400;2023-04-01T00:20:13;96528.22;;;8.48;82.40
9423;BME280;65863;49.506;10.400;2023-04-01T00:22:58;96488.03;;;8.18;82.20
9423;BME280;65863;49.506;10.400;2023-04-01T00:25:43;96509.00;;;8.27;81.68
9423;BME280;65863;49.506;10.400;2023-04-01T00:28:29;96509.72;;;8.27;82.15
9423;BME280;65863;49.506;10.400;2023-04-01T00:31:13;96532.16;;;8.45;82.35
9423;BME280;65863;49.506;10.400;2023-04-01T00:33:58;96511.94;;;8.29;82.02
9423;BME280;65863;49.506;10.400;2023-04-01T00:36:42;96505.63;;;8.28;81.95
9423;BME280;65863;49.506;10.400;2023-04-01T00:39:29;96501.69;;;8.14;82.34
9423;BME280;65863;49.506;10.400;2023-04-01T00:42:13;96511.22;;;8.28;82.25
9423;BME280;65863;49.506;10.400;2023-04-01T00:44:57;96501.81;;;8.16;82.00
9423;BME280;65863;49.506;10.400;2023-04-01T00:47:42;96513.78;;;8.34;82.33
9423;BME280;65863;49.506;10.400;2023-04-01T00:50:26;96505.63;;;8.28;82.09
9423;BME280;65863;49.506;10.400;2023-04-01T00:53:13;96511.06;;;8.26;82.06
9423;BME280;65863;49.506;10.400;2023-04-01T00:56:04;96521.78;;;8.38;81.88
9423;BME280;65863;49.506;10.400;2023-04-01T00:58:52;96525.81;;;8.44;82.13
9423;BME280;65863;49.506;10.400;2023-04-01T01:01:39;96513.63;;;8.32;81.68
9423;BME280;65863;49.506;10.400;2023-04-01T01:04:32;96508.75;;;8.33;81.79
9423;BME280;65863;49.506;10.400;2023-04-01T01:10:38;96498.22;;;8.23;80.95
9423;BME280;65863;49.506;10.400;2023-04-01T01:13:31;96493.38;;;8.24;80.80
9423;BME280;65863;49.506;10.400;2023-04-01T01:16:26;96529.53;;;8.47;80.61
9423;BME280;65863;49.506;10.400;2023-04-01T01:26:09;96532.31;;;8.47;80.40
9423;BME280;65863;49.506;10.400;2023-04-01T01:38:04;96511.75;;;8.52;78.43
9423;BME280;65863;49.506;10.400;2023-04-01T01:40:52;96489.53;;;8.37;78.14
9423;BME280;65863;49.506;10.400;2023-04-01T01:43:40;96501.75;;;8.49;78.08
9423;BME280;65863;49.506;10.400;2023-04-01T01:46:27;96476.03;;;8.25;77.40
9423;BME280;65863;49.506;10.400;2023-04-01T01:49:12;96456.13;;;8.21;77.49
9423;BME280;65863;49.506;10.400;2023-04-01T01:51:57;96467.66;;;8.25;77.52
9423;BME280;65863;49.506;10.400;2023-04-01T01:54:53;96499.34;;;8.46;77.84
9423;BME280;65863;49.506;10.400;2023-04-01T01:57:39;96463.03;;;8.20;77.63
9423;BME280;65863;49.506;10.400;2023-04-01T02:00:30;96470.94;;;8.32;77.68
9423;BME280;65863;49.506;10.400;2023-04-01T02:03:17;96475.13;;;8.23;77.86
9423;BME280;65863;49.506;10.400;2023-04-01T02:06:06;96498.41;;;8.43;77.63
9423;BME280;65863;49.506;10.400;2023-04-01T02:08:57;96492.44;;;8.47;77.96
9423;BME280;65863;49.506;10.400;2023-04-01T02:11:48;96493.06;;;8.37;77.31
9423;BME280;65863;49.506;10.400;2023-04-01T02:14:40;96478.00;;;8.33;77.17
9423;BME280;65863;49.506;10.400;2023-04-01T02:17:27;96497.84;;;8.44;77.47
9423;BME280;65863;49.506;10.400;2023-04-01T02:20:20;96498.94;;;8.49;76.92
9423;BME280;65863;49.506;10.400;2023-04-01T02:23:06;96480.63;;;8.31;77.39
9423;BME280;65863;49.506;10.400;2023-04-01T02:25:52;96473.97;;;8.26;77.37
9423;BME280;65863;49.506;10.400;2023-04-01T02:28:37;96496.16;;;8.49;77.40
9423;BME280;65863;49.506;10.400;2023-04-01T02:31:23;96498.03;;;8.47;77.42
9423;BME280;65863;49.506;10.400;2023-04-01T02:34:08;96479.56;;;8.26;77.20
9423;BME280;65863;49.506;10.400;2023-04-01T02:36:52;96506.31;;;8.37;77.36
9423;BME280;65863;49.506;10.400;2023-04-01T02:39:38;96470.75;;;8.12;77.34
9423;BME280;65863;49.506;10.400;2023-04-01T02:42:22;96487.94;;;8.26;77.48
9423;BME280;65863;49.506;10.400;2023-04-01T02:45:07;96474.41;;;8.22;77.64
9423;BME280;65863;49.506;10.400;2023-04-01T02:47:51;96489.19;;;8.33;77.72
9423;BME280;65863;49.506;10.400;2023-04-01T02:50:35;96487.03;;;8.23;77.67
9423;BME280;65863;49.506;10.400;2023-04-01T02:53:19;96464.03;;;8.15;77.87
9423;BME280;65863;49.506;10.400;2023-04-01T02:56:04;96427.81;;;7.82;77.67
9423;BME280;65863;49.506;10.400;2023-04-01T02:58:48;96475.38;;;8.17;77.76
9423;BME280;65863;49.506;10.400;2023-04-01T03:01:32;96471.91;;;8.09;77.47
9423;BME280;65863;49.506;10.400;2023-04-01T03:04:16;96463.59;;;8.01;77.65
9423;BME280;65863;49.506;10.400;2023-04-01T03:07:00;96502.59;;;8.17;77.57
9423;BME280;65863;49.506;10.400;2023-04-01T03:09:44;96486.88;;;8.04;77.60
9423;BME280;65863;49.506;10.400;2023-04-01T03:12:28;96501.69;;;8.14;77.68
9423;BME280;65863;49.506;10.400;2023-04-01T03:15:13;96489.81;;;8.06;77.47
9423;BME280;65863;49.506;10.400;2023-04-01T03:17:58;96519.25;;;8.07;77.70
9423;BME280;65863;49.506;10.400;2023-04-01T03:20:42;96510.63;;;8.13;77.81
9423;BME280;65863;49.506;10.400;2023-04-01T03:23:26;96497.72;;;8.00;77.95
9423;BME280;65863;49.506;10.400;2023-04-01T03:26:10;96496.56;;;8.03;78.23
9423;BME280;65863;49.506;10.400;2023-04-01T03:28:55;96497.28;;;8.03;78.18
9423;BME280;65863;49.506;10.400;2023-04-01T03:31:40;96457.13;;;7.73;78.02
9423;BME280;65863;49.506;10.400;2023-04-01T03:34:25;96484.38;;;7.90;77.87
9423;BME280;65863;49.506;10.400;2023-04-01T03:37:09;96506.09;;;8.00;77.98
9423;BME280;65863;49.506;10.400;2023-04-01T03:39:53;96449.63;;;7.58;77.63
9423;BME280;65863;49.506;10.400;2023-04-01T03:42:37;96502.97;;;7.96;77.67
9423;BME280;65863;49.506;10.400;2023-04-01T03:45:21;96473.28;;;7.83;77.78
9423;BME280;65863;49.506;10.400;2023-04-01T03:48:05;96499.16;;;8.01;77.29
9423;BME280;65863;49.506;10.400;2023-04-01T03:50:49;96508.34;;;8.19;76.82
9423;BME280;65863;49.506;10.400;2023-04-01T03:53:33;96526.59;;;8.37;76.02
9423;BME280;65863;49.506;10.400;2023-04-01T03:56:19;96523.22;;;8.39;75.63
9423;BME280;65863;49.506;10.400;2023-04-01T03:59:05;96531.22;;;8.42;75.62
9423;BME280;65863;49.506;10.400;2023-04-01T04:01:50;96506.59;;;8.23;75.22
9423;BME280;65863;49.506;10.400;2023-04-01T04:04:34;96515.00;;;8.23;75.21
9423;BME280;65863;49.506;10.400;2023-04-01T04:07:18;96502.94;;;8.21;74.92
9423;BME280;65863;49.506;10.400;2023-04-01T04:10:31;96502.34;;;8.22;74.48
9423;BME280;65863;49.506;10.400;2023-04-01T04:13:15;96503.91;;;8.16;74.92
9423;BME280;65863;49.506;10.400;2023-04-01T04:16:07;96526.84;;;8.32;75.45
9423;BME280;65863;49.506;10.400;2023-04-01T04:18:55;96508.06;;;8.07;75.60
9423;BME280;65863;49.506;10.400;2023-04-01T04:21:40;96524.38;;;8.18;76.02
9423;BME280;65863;49.506;10.400;2023-04-01T04:24:25;96503.94;;;7.90;76.66
9423;BME280;65863;49.506;10.400;2023-04-01T04:27:24;96532.31;;;8.04;77.43
9423;BME280;65863;49.506;10.400;2023-04-01T04:30:16;96495.66;;;7.75;78.34
9423;BME280;65863;49.506;10.400;2023-04-01T04:33:00;96500.88;;;7.79;78.69
9423;BME280;65863;49.506;10.400;2023-04-01T04:35:45;96524.25;;;7.91;78.72
9423;BME280;65863;49.506;10.400;2023-04-01T04:38:29;96531.28;;;7.92;79.06
9423;BME280;65863;49.506;10.400;2023-04-01T04:41:14;96527.25;;;7.85;79.49
9423;BME280;65863;49.506;10.400;2023-04-01T04:44:01;96513.00;;;7.73;79.53
9423;BME280;65863;49.506;10.400;2023-04-01T04:46:45;96517.56;;;7.86;79.15
9423;BME280;65863;49.506;10.400;2023-04-01T04:49:31;96514.59;;;7.84;79.41
9423;BME280;65863;49.506;10.400;2023-04-01T04:52:17;96501.66;;;7.71;79.69
9423;BME280;65863;49.506;10.400;2023-04-01T04:55:02;96511.72;;;7.67;79.91
9423;BME280;65863;49.506;10.400;2023-04-01T04:57:46;96526.97;;;7.73;80.27
9423;BME280;65863;49.506;10.400;2023-04-01T05:00:30;96514.03;;;7.61;80.45
9423;BME280;65863;49.506;10.400;2023-04-01T05:03:17;96488.78;;;7.51;80.44
9423;BME280;65863;49.506;10.400;2023-04-01T05:06:02;96526.16;;;7.81;80.29
9423;BME280;65863;49.506;10.400;2023-04-01T05:08:47;96516.56;;;7.74;80.43
9423;BME280;65863;49.506;10.400;2023-04-01T05:11:31;96500.78;;;7.61;80.55
9423;BME280;65863;49.506;10.400;2023-04-01T05:14:15;96530.22;;;7.87;80.19
9423;BME280;65863;49.506;10.400;2023-04-01T05:17:03;96497.13;;;7.58;80.25
9423;BME280;65863;49.506;10.400;2023-04-01T05:19:47;96498.00;;;7.61;80.28
9423;BME280;65863;49.506;10.400;2023-04-01T05:22:31;96528.69;;;7.94;80.06
9423;BME280;65863;49.506;10.400;2023-04-01T05:25:15;96513.19;;;7.75;80.22
9423;BME280;65863;49.506;10.400;2023-04-01T05:27:59;96522.78;;;7.82;80.24
9423;BME280;65863;49.506;10.400;2023-04-01T05:30:44;96540.59;;;7.95;80.26
9423;BME280;65863;49.506;10.400;2023-04-01T05:33:39;96538.03;;;7.89;80.29
9423;BME280;65863;49.506;10.400;2023-04-01T05:36:23;96510.19;;;7.73;80.25
9423;BME280;65863;49.506;10.400;2023-04-01T05:39:09;96526.72;;;7.79;80.17
9423;BME280;65863;49.506;10.400;2023-04-01T05:41:54;96537.09;;;7.86;80.67
9423;BME280;65863;49.506;10.400;2023-04-01T05:44:37;96550.28;;;7.93;81.07
9423;BME280;65863;49.506;10.400;2023-04-01T05:47:24;96544.34;;;7.89;81.66
9423;BME280;65863;49.506;10.400;2023-04-01T05:50:09;96546.06;;;7.85;81.75
9423;BME280;65863;49.506;10.400;2023-04-01T05:52:54;96545.56;;;7.79;82.59
9423;BME280;65863;49.506;10.400;2023-04-01T05:55:39;96507.94;;;7.54;82.77
9423;BME280;65863;49.506;10.400;2023-04-01T05:58:24;96516.31;;;7.54;83.26
9423;BME280;65863;49.506;10.400;2023-04-01T06:01:11;96386.59;;;6.72;83.26
9423;BME280;65863;49.506;10.400;2023-04-01T06:04:00;96507.06;;;7.44;84.06
9423;BME280;65863;49.506;10.400;2023-04-01T06:06:44;96536.88;;;7.67;84.23
9423;BME280;65863;49.506;10.400;2023-04-01T06:09:30;96513.09;;;7.58;84.63
9423;BME280;65863;49.506;10.400;2023-04-01T06:12:47;96546.28;;;7.79;84.77
9423;BME280;65863;49.506;10.400;2023-04-01T06:15:39;96533.63;;;7.78;84.96
9423;BME280;65863;49.506;10.400;2023-04-01T06:18:53;96541.31;;;7.95;84.54
9423;BME280;65863;49.506;10.400;2023-04-01T06:34:51;96532.53;;;8.41;82.29
9423;BME280;65863;49.506;10.400;2023-04-01T06:41:00;96501.34;;;8.27;81.04
9423;BME280;65863;49.506;10.400;2023-04-01T06:44:05;96532.97;;;8.55;80.23
9423;BME280;65863;49.506;10.400;2023-04-01T06:54:45;96515.22;;;8.78;78.32
9423;BME280;65863;49.506;10.400;2023-04-01T06:57:52;96509.59;;;8.78;77.45
9423;BME280;65863;49.506;10.400;2023-04-01T07:00:43;96500.81;;;8.64;76.97
9423;BME280;65863;49.506;10.400;2023-04-01T07:03:39;96500.63;;;8.79;76.85
9423;BME280;65863;49.506;10.400;2023-04-01T07:06:31;96505.75;;;8.73;76.45
9423;BME280;65863;49.506;10.400;2023-04-01T07:09:24;96488.72;;;8.79;76.17
9423;BME280;65863;49.506;10.400;2023-04-01T07:22:46;96524.16;;;9.39;73.77
9423;BME280;65863;49.506;10.400;2023-04-01T07:25:44;96517.16;;;9.57;73.48
9423;BME280;65863;49.506;10.400;2023-04-01T07:28:59;96494.81;;;9.40;73.31
9423;BME280;65863;49.506;10.400;2023-04-01T07:35:11;96531.69;;;9.46;72.83
9423;BME280;65863;49.506;10.400;2023-04-01T07:38:13;96520.00;;;9.40;73.17
9423;BME280;65863;49.506;10.400;2023-04-01T07:41:18;96533.72;;;9.36;73.30
9423;BME280;65863;49.506;10.400;2023-04-01T07:50:29;96516.41;;;9.02;73.65
9423;BME280;65863;49.506;10.400;2023-04-01T07:53:50;96512.56;;;8.98;73.69
9423;BME280;65863;49.506;10.400;2023-04-01T08:00:16;96521.50;;;9.41;74.35
9423;BME280;65863;49.506;10.400;2023-04-01T08:12:35;96519.47;;;9.51;73.07
9423;BME280;65863;49.506;10.400;2023-04-01T08:16:10;96540.69;;;9.81;73.32
9423;BME280;65863;49.506;10.400;2023-04-01T08:19:30;96552.09;;;9.93;73.42
9423;BME280;65863;49.506;10.400;2023-04-01T08:22:21;96540.56;;;9.89;73.31
9423;BME280;65863;49.506;10.400;2023-04-01T08:25:16;96546.44;;;10.21;73.40
9423;BME280;65863;49.506;10.400;2023-04-01T08:28:24;96542.97;;;10.40;72.77
9423;BME280;65863;49.506;10.400;2023-04-01T08:31:23;96501.56;;;10.11;72.77
9423;BME280;65863;49.506;10.400;2023-04-01T08:34:36;96552.00;;;10.48;72.41
9423;BME280;65863;49.506;10.400;2023-04-01T08:37:21;96539.63;;;10.14;72.67
9423;BME280;65863;49.506;10.400;2023-04-01T08:40:32;96556.19;;;10.20;73.22
9423;BME280;65863;49.506;10.400;2023-04-01T08:43:46;96560.19;;;10.26;73.88
9423;BME280;65863;49.506;10.400;2023-04-01T08:50:02;96556.53;;;9.96;74.92
9423;BME280;65863;49.506;10.400;2023-04-01T08:53:24;96570.31;;;9.75;75.95
9423;BME280;65863;49.506;10.400;2023-04-01T08:56:20;96525.50;;;9.20;76.17
9423;BME280;65863;49.506;10.400;2023-04-01T08:59:13;96562.72;;;9.30;77.29
9423;BME280;65863;49.506;10.400;2023-04-01T09:05:35;96533.44;;;8.96;78.33
9423;BME280;65863;49.506;10.400;2023-04-01T09:11:59;96553.91;;;9.17;79.92
9423;BME280;65863;49.506;10.400;2023-04-01T09:18:13;96543.84;;;8.86;80.54
9423;BME280;65863;49.506;10.400;2023-04-01T09:24:31;96562.00;;;8.95;81.85
9423;BME280;65863;49.506;10.400;2023-04-01T09:33:36;96579.56;;;8.60;83.26
9423;BME280;65863;49.506;10.400;2023-04-01T09:36:43;96536.53;;;8.31;83.76
9423;BME280;65863;49.506;10.400;2023-04-01T09:42:48;96567.38;;;8.40;83.89
9423;BME280;65863;49.506;10.400;2023-04-01T09:46:06;96565.50;;;8.43;84.26
9423;BME280;65863;49.506;10.400;2023-04-01T09:49:13;96571.22;;;8.53;84.66
9423;BME280;65863;49.506;10.400;2023-04-01T09:52:37;96564.22;;;8.61;84.84
9423;BME280;65863;49.506;10.400;2023-04-01T09:55:53;96561.44;;;8.61;84.47
9423;BME280;65863;49.506;10.400;2023-04-01T10:08:09;96588.84;;;8.63;83.69
9423;BME280;65863;49.506;10.400;2023-04-01T10:11:18;96585.31;;;8.80;83.42
9423;BME280;65863;49.506;10.400;2023-04-01T10:23:45;96532.06;;;8.70;82.62
9423;BME280;65863;49.506;10.400;2023-04-01T10:27:08;96542.84;;;8.74;82.47
9423;BME280;65863;49.506;10.400;2023-04-01T10:40:01;96563.22;;;9.19;82.18
9423;BME280;65863;49.506;10.400;2023-04-01T10:43:37;96549.09;;;9.44;82.10
9423;BME280;65863;49.506;10.400;2023-04-01T10:52:36;96558.47;;;9.67;82.17
9423;BME280;65863;49.506;10.400;2023-04-01T11:00:11;96492.31;;;8.89;83.03
9423;BME280;65863;49.506;10.400;2023-04-01T11:16:39;96545.38;;;9.42;83.71
9423;BME280;65863;49.506;10.400;2023-04-01T11:25:45;96540.19;;;9.38;83.09
9423;BME280;65863;49.506;10.400;2023-04-01T11:29:18;96558.59;;;9.59;82.87
9423;BME280;65863;49.506;10.400;2023-04-01T11:32:29;96536.66;;;9.38;82.65
9423;BME280;65863;49.506;10.400;2023-04-01T11:35:28;96562.88;;;9.60;82.61
9423;BME280;65863;49.506;10.400;2023-04-01T11:38:38;96504.56;;;9.21;82.56
9423;BME280;65863;49.506;10.400;2023-04-01T11:45:20;96552.19;;;9.48;82.66
9423;BME280;65863;49.506;10.400;2023-04-01T11:48:19;96532.88;;;9.43;83.19
9423;BME280;65863;49.506;10.400;2023-04-01T11:54:20;96565.88;;;9.72;82.88
9423;BME280;65863;49.506;10.400;2023-04-01T12:04:31;96568.00;;;9.54;82.52
9423;BME280;65863;49.506;10.400;2023-04-01T12:10:55;96586.41;;;9.47;82.92
9423;BME280;65863;49.506;10.400;2023-04-01T12:13:56;96588.16;;;9.25;82.87
9423;BME280;65863;49.506;10.400;2023-04-01T12:16:54;96560.28;;;9.17;82.93
9423;BME280;65863;49.506;10.400;2023-04-01T12:19:44;96585.44;;;9.35;83.39
9423;BME280;65863;49.506;10.400;2023-04-01T12:25:56;96586.69;;;9.24;83.29
9423;BME280;65863;49.506;10.400;2023-04-01T12:32:30;96568.78;;;9.37;83.35
9423;BME280;65863;49.506;10.400;2023-04-01T12:48:00;96586.06;;;9.70;83.37
9423;BME280;65863;49.506;10.400;2023-04-01T12:51:47;96530.09;;;9.25;82.68
9423;BME280;65863;49.506;10.400;2023-04-01T13:03:55;96559.72;;;9.83;81.73
9423;BME280;65863;49.506;10.400;2023-04-01T13:09:50;96595.31;;;9.90;81.58
9423;BME280;65863;49.506;10.400;2023-04-01T13:18:57;96607.63;;;9.77;81.81
9423;BME280;65863;49.506;10.400;2023-04-01T13:24:51;96606.00;;;9.74;82.25
9423;BME280;65863;49.506;10.400;2023-04-01T13:27:41;96590.31;;;9.61;82.34
9423;BME280;65863;49.506;10.400;2023-04-01T13:30:34;96615.34;;;9.59;82.53
9423;BME280;65863;49.506;10.400;2023-04-01T13:33:30;96574.41;;;9.19;82.67
9423;BME280;65863;49.506;10.400;2023-04-01T13:36:34;96605.41;;;9.48;83.76
9423;BME280;65863;49.506;10.400;2023-04-01T13:39:52;96612.75;;;9.44;83.99
9423;BME280;65863;49.506;10.400;2023-04-01T13:42:49;96615.72;;;9.46;84.90
9423;BME280;65863;49.506;10.400;2023-04-01T13:45:46;96611.75;;;9.49;85.25
9423;BME280;65863;49.506;10.400;2023-04-01T13:49:01;96616.81;;;9.33;85.32
9423;BME280;65863;49.506;10.400;2023-04-01T13:55:00;96620.19;;;9.32;85.86
9423;BME280;65863;49.506;10.400;2023-04-01T14:01:37;96631.47;;;9.41;86.40
9423;BME280;65863;49.506;10.400;2023-04-01T14:13:37;96646.53;;;9.28;86.63
9423;BME280;65863;49.506;10.400;2023-04-01T14:22:46;96606.69;;;9.03;86.88
9423;BME280;65863;49.506;10.400;2023-04-01T14:40:55;96642.00;;;9.16;87.25
9423;BME280;65863;49.506;10.400;2023-04-01T14:50:23;96639.63;;;9.12;86.54
9423;BME280;65863;49.506;10.400;2023-04-01T14:53:13;96644.56;;;9.21;86.65
9423;BME280;65863;49.506;10.400;2023-04-01T14:56:01;96653.53;;;9.20;86.21
9423;BME280;65863;49.506;10.400;2023-04-01T14:58:49;96623.34;;;9.01;86.26
9423;BME280;65863;49.506;10.400;2023-04-01T15:16:28;96674.72;;;9.13;85.07
9423;BME280;65863;49.506;10.400;2023-04-01T15:20:08;96661.06;;;9.17;85.01
9423;BME280;65863;49.506;10.400;2023-04-01T15:25:50;96685.41;;;9.07;84.99
9423;BME280;65863;49.506;10.400;2023-04-01T15:37:48;96683.66;;;8.94;84.96
9423;BME280;65863;49.506;10.400;2023-04-01T15:40:42;96675.03;;;9.00;84.84
9423;BME280;65863;49.506;10.400;2023-04-01T15:43:46;96684.00;;;8.98;85.20
9423;BME280;65863;49.506;10.400;2023-04-01T15:46:44;96681.03;;;8.96;85.12
9423;BME280;65863;49.506;10.400;2023-04-01T15:49:41;96680.72;;;8.92;85.03
9423;BME280;65863;49.506;10.400;2023-04-01T16:01:51;96691.00;;;8.89;85.04
9423;BME280;65863;49.506;10.400;2023-04-01T16:04:59;96697.91;;;8.88;84.82
9423;BME280;65863;49.506;10.400;2023-04-01T16:13:53;96664.94;;;8.61;84.77
9423;BME280;65863;49.506;10.400;2023-04-01T16:19:56;96675.16;;;8.67;84.58
9423;BME280;65863;49.506;10.400;2023-04-01T16:22:49;96701.59;;;8.91;84.58
9423;BME280;65863;49.506;10.400;2023-04-01T16:25:39;96707.59;;;8.87;84.51
9423;BME280;65863;49.506;10.400;2023-04-01T16:28:32;96711.66;;;8.94;84.70
9423;BME280;65863;49.506;10.400;2023-04-01T16:31:32;96674.00;;;8.70;84.49
9423;BME280;65863;49.506;10.400;2023-04-01T16:34:27;96709.13;;;9.06;84.23
9423;BME280;65863;49.506;10.400;2023-04-01T16:37:21;96712.56;;;9.14;84.21
9423;BME280;65863;49.506;10.400;2023-04-01T16:46:14;96711.41;;;9.00;83.55
9423;BME280;65863;49.506;10.400;2023-04-01T16:49:03;96729.47;;;9.06;83.27
9423;BME280;65863;49.506;10.400;2023-04-01T16:54:59;96732.06;;;9.04;82.76
9423;BME280;65863;49.506;10.400;2023-04-01T16:57:57;96745.91;;;9.02;82.84
9423;BME280;65863;49.506;10.400;2023-04-01T17:00:53;96744.19;;;9.07;82.95
9423;BME280;65863;49.506;10.400;2023-04-01T17:03:46;96747.97;;;9.02;83.08
9423;BME280;65863;49.506;10.400;2023-04-01T17:10:17;96728.63;;;8.71;83.38
9423;BME280;65863;49.506;10.400;2023-04-01T17:13:34;96732.94;;;8.72;83.64
9423;BME280;65863;49.506;10.400;2023-04-01T17:22:15;96759.56;;;8.73;84.46
9423;BME280;65863;49.506;10.400;2023-04-01T17:25:48;96760.91;;;8.72;84.90
9423;BME280;65863;49.506;10.400;2023-04-01T17:43:54;96790.78;;;8.61;85.61
9423;BME280;65863;49.506;10.400;2023-04-01T17:50:02;96797.75;;;8.53;85.98
9423;BME280;65863;49.506;10.400;2023-04-01T17:53:02;96780.13;;;8.35;86.22
9423;BME280;65863;49.506;10.400;2023-04-01T17:55:59;96759.16;;;8.18;86.64
9423;BME280;65863;49.506;10.400;2023-04-01T17:59:09;96804.31;;;8.48;86.76
9423;BME280;65863;49.506;10.400;2023-04-01T18:21:07;96830.97;;;8.49;87.44
9423;BME280;65863;49.506;10.400;2023-04-01T18:23:58;96814.66;;;8.30;87.23
9423;BME280;65863;49.506;10.400;2023-04-01T18:26:49;96831.00;;;8.41;87.38
9423;BME280;65863;49.506;10.400;2023-04-01T18:36:02;96839.53;;;8.43;87.11
9423;BME280;65863;49.506;10.400;2023-04-01T18:39:00;96796.88;;;8.02;86.77
9423;BME280;65863;49.506;10.400;2023-04-01T18:42:16;96848.72;;;8.36;86.78
9423;BME280;65863;49.506;10.400;2023-04-01T18:51:47;96874.56;;;8.59;86.09
9423;BME280;65863;49.506;10.400;2023-04-01T18:57:50;96837.56;;;8.28;85.21
9423;BME280;65863;49.506;10.400;2023-04-01T19:00:39;96862.69;;;8.36;85.24
9423;BME280;65863;49.506;10.400;2023-04-01T19:03:32;96885.75;;;8.52;85.15
9423;BME280;65863;49.506;10.400;2023-04-01T19:06:41;96890.78;;;8.53;85.30
9423;BME280;65863;49.506;10.400;2023-04-01T19:09:47;96903.81;;;8.58;84.96
9423;BME280;65863;49.506;10.400;2023-04-01T19:12:47;96908.13;;;8.59;84.98
9423;BME280;65863;49.506;10.400;2023-04-01T19:16:03;96904.59;;;8.51;85.05
9423;BME280;65863;49.506;10.400;2023-04-01T19:19:02;96917.44;;;8.62;85.22
9423;BME280;65863;49.506;10.400;2023-04-01T19:21:58;96907.34;;;8.59;85.06
9423;BME280;65863;49.506;10.400;2023-04-01T19:28:21;96871.81;;;8.36;84.90
9423;BME280;65863;49.506;10.400;2023-04-01T19:34:26;96905.75;;;8.48;84.98
9423;BME280;65863;49.506;10.400;2023-04-01T19:37:33;96854.56;;;8.15;84.65
9423;BME280;65863;49.506;10.400;2023-04-01T19:40:30;96913.38;;;8.48;84.97
9423;BME280;65863;49.506;10.400;2023-04-01T19:46:21;96904.78;;;8.53;84.84
9423;BME280;65863;49.506;10.400;2023-04-01T19:49:40;96914.66;;;8.54;84.74
9423;BME280;65863;49.506;10.400;2023-04-01T19:52:38;96891.38;;;8.36;84.44
9423;BME280;65863;49.506;10.400;2023-04-01T20:01:44;96918.44;;;8.49;84.93
9423;BME280;65863;49.506;10.400;2023-04-01T20:04:44;96896.31;;;8.20;84.60
9423;BME280;65863;49.506;10.400;2023-04-01T20:07:37;96927.75;;;8.36;84.86
9423;BME280;65863;49.506;10.400;2023-04-01T20:14:27;96922.00;;;8.26;84.66
9423;BME280;65863;49.506;10.400;2023-04-01T20:17:22;96878.69;;;7.95;84.65
9423;BME280;65863;49.506;10.400;2023-04-01T20:23:05;96946.78;;;8.38;84.95
9423;BME280;65863;49.506;10.400;2023-04-01T20:25:57;96944.72;;;8.31;84.78
9423;BME280;65863;49.506;10.400;2023-04-01T20:28:48;96941.59;;;8.19;85.01
9423;BME280;65863;49.506;10.400;2023-04-01T20:31:43;96953.47;;;8.35;85.14
9423;BME280;65863;49.506;10.400;2023-04-01T20:37:30;96952.78;;;8.26;85.79
9423;BME280;65863;49.506;10.400;2023-04-01T20:40:40;96963.38;;;8.28;85.88
9423;BME280;65863;49.506;10.400;2023-04-01T20:43:42;96925.06;;;7.98;85.47
9423;BME280;65863;49.506;10.400;2023-04-01T20:53:04;96959.50;;;8.16;85.86
9423;BME280;65863;49.506;10.400;2023-04-01T21:05:41;96972.00;;;8.07;86.15
9423;BME280;65863;49.506;10.400;2023-04-01T21:09:18;96973.13;;;8.04;85.77
9423;BME280;65863;49.506;10.400;2023-04-01T21:21:53;96989.88;;;7.96;86.21
9423;BME280;65863;49.506;10.400;2023-04-01T21:24:51;96976.50;;;7.79;86.40
9423;BME280;65863;49.506;10.400;2023-04-01T21:31:01;97003.88;;;7.88;86.65
9423;BME280;65863;49.506;10.400;2023-04-01T22:11:43;97047.63;;;7.93;86.84
9423;BME280;65863;49.506;10.400;2023-04-01T22:14:38;97045.03;;;7.96;87.20
9423;BME280;65863;49.506;10.400;2023-04-01T22:17:58;97056.03;;;7.93;87.07
9423;BME280;65863;49.506;10.400;2023-04-01T22:20:57;97037.59;;;7.83;87.33
9423;BME280;65863;49.506;10.400;2023-04-01T22:24:01;97037.00;;;7.76;87.50
9423;BME280;65863;49.506;10.400;2023-04-01T22:27:07;97028.44;;;7.74;87.54
9423;BME280;65863;49.506;10.400;2023-04-01T22:33:21;97050.06;;;7.82;87.55
9423;BME280;65863;49.506;10.400;2023-04-01T22:39:19;97063.50;;;7.91;87.24
9423;BME280;65863;49.506;10.400;2023-04-01T22:42:51;97052.66;;;7.72;87.10
9423;BME280;65863;49.506;10.400;2023-04-01T22:45:38;97086.75;;;7.93;86.68
9423;BME280;65863;49.506;10.400;2023-04-01T22:48:35;97046.50;;;7.66;87.28
9423;BME280;65863;49.506;10.400;2023-04-01T22:51:42;97080.44;;;7.93;87.54
9423;BME280;65863;49.506;10.400;2023-04-01T22:54:39;97085.63;;;7.89;87.34
9423;BME280;65863;49.506;10.400;2023-04-01T22:58:00;97088.25;;;7.95;87.48
9423;BME280;65863;49.506;10.400;2023-04-01T23:00:49;97082.50;;;7.92;87.12
9423;BME280;65863;49.506;10.400;2023-04-01T23:03:38;97056.56;;;7.69;87.56
9423;BME280;65863;49.506;10.400;2023-04-01T23:06:28;97078.19;;;7.76;87.40
9423;BME280;65863;49.506;10.400;2023-04-01T23:09:19;97095.31;;;7.88;87.49
9423;BME280;65863;49.506;10.400;2023-04-01T23:12:07;97066.25;;;7.68;87.66
9423;BME280;65863;49.506;10.400;2023-04-01T23:15:00;97073.16;;;7.74;87.48
9423;BME280;65863;49.506;10.400;2023-04-01T23:17:49;97103.91;;;7.90;87.95
9423;BME280;65863;49.506;10.400;2023-04-01T23:26:46;97083.94;;;7.70;87.86
9423;BME280;65863;49.506;10.400;2023-04-01T23:29:37;97106.88;;;7.84;87.83
9423;BME280;65863;49.506;10.400;2023-04-01T23:32:24;97108.38;;;7.85;87.91
9423;BME280;65863;49.506;10.400;2023-04-01T23:35:15;97106.47;;;7.72;88.20
9423;BME280;65863;49.506;10.400;2023-04-01T23:38:00;97105.00;;;7.71;88.06
9423;BME280;65863;49.506;10.400;2023-04-01T23:40:47;97098.25;;;7.67;88.03